Time;durP1;ratioP1;P1;durP2;ratioP2;P2;SDS_P1;SDS_P2;PMS_P1;PMS_P2;Temp;Humidity;BMP_temperature;BMP_pressure;BME280_temperature;BME280_humidity;BME280_pressure;Samples;Min_cycle;Max_cycle;Signal;HPM_P1;HPM_P2
2021/05/20 00:01:54;;;;;;;1.40;1.30;;;11.00;71.80;;;;;;5053544;28;20618;-86
2021/05/20 00:04:23;;;;;;;3.03;1.30;;;11.10;72.00;;;;;;5053661;28;20630;-86
2021/05/20 00:06:51;;;;;;;1.50;1.40;;;11.00;70.70;;;;;;5054177;28;20622;-86
2021/05/20 00:09:18;;;;;;;1.23;1.13;;;11.20;71.70;;;;;;5048869;28;20640;-86
2021/05/20 00:11:44;;;;;;;1.17;1.07;;;11.10;71.20;;;;;;5053345;28;20626;-86
2021/05/20 00:14:11;;;;;;;1.20;1.10;;;11.20;70.80;;;;;;5053585;28;20645;-86
2021/05/20 00:16:40;;;;;;;1.10;0.97;;;11.10;70.70;;;;;;5053232;28;20621;-86
2021/05/20 00:19:07;;;;;;;1.70;1.60;;;11.00;71.20;;;;;;5052873;28;20625;-86
2021/05/20 00:21:34;;;;;;;1.00;1.00;;;11.10;71.30;;;;;;5053274;28;20664;-86
2021/05/20 00:24:00;;;;;;;1.67;1.30;;;11.20;71.20;;;;;;5053381;28;20614;-85
2021/05/20 00:26:29;;;;;;;1.00;1.00;;;11.30;71.40;;;;;;5053130;28;20629;-85
2021/05/20 00:28:55;;;;;;;2.03;1.20;;;11.10;70.40;;;;;;5053780;28;21019;-85
2021/05/20 00:31:21;;;;;;;1.20;1.10;;;11.30;72.00;;;;;;5053378;28;20602;-86
2021/05/20 00:33:49;;;;;;;0.90;0.90;;;11.20;72.70;;;;;;5053152;28;20686;-85
2021/05/20 00:36:15;;;;;;;1.03;0.90;;;11.20;72.00;;;;;;5053169;28;21103;-85
2021/05/20 00:38:45;;;;;;;1.20;1.10;;;11.10;72.00;;;;;;5052579;28;20626;-85
2021/05/20 00:41:13;;;;;;;1.00;1.00;;;11.00;72.60;;;;;;5053122;28;20230;-85
2021/05/20 00:43:41;;;;;;;1.40;1.30;;;11.10;73.30;;;;;;5052654;28;20606;-85
2021/05/20 00:46:08;;;;;;;1.27;1.13;;;11.10;72.70;;;;;;5052952;28;20944;-85
2021/05/20 00:48:34;;;;;;;1.27;1.17;;;11.00;72.80;;;;;;5052513;28;21196;-85
2021/05/20 00:51:01;;;;;;;1.27;1.17;;;11.10;73.20;;;;;;5047959;28;20654;-85
2021/05/20 00:53:28;;;;;;;1.00;1.00;;;11.30;72.10;;;;;;5049049;28;20711;-85
2021/05/20 00:55:55;;;;;;;2.40;1.35;;;11.20;73.30;;;;;;5052109;28;20618;-85
2021/05/20 00:58:22;;;;;;;1.80;1.30;;;11.20;72.90;;;;;;5052743;28;20223;-85
2021/05/20 01:00:51;;;;;;;1.63;1.03;;;11.20;72.80;;;;;;5050735;28;20664;-85
2021/05/20 01:03:20;;;;;;;1.00;0.90;;;11.20;73.10;;;;;;5052108;28;20629;-85
2021/05/20 01:05:48;;;;;;;2.40;1.00;;;11.30;73.10;;;;;;5052757;28;20652;-85
2021/05/20 01:08:17;;;;;;;2.00;1.53;;;11.40;72.70;;;;;;5052597;28;20618;-85
2021/05/20 01:10:45;;;;;;;1.20;1.10;;;11.30;73.30;;;;;;5051549;28;20624;-85
2021/05/20 01:13:16;;;;;;;1.50;0.70;;;11.30;73.90;;;;;;5052310;28;21225;-85
2021/05/20 01:15:44;;;;;;;1.40;1.10;;;11.50;73.50;;;;;;5052215;28;20622;-86
2021/05/20 01:18:11;;;;;;;1.30;1.20;;;11.50;73.10;;;;;;5052149;28;20681;-85
2021/05/20 01:20:44;;;;;;;1.60;1.50;;;11.40;74.40;;;;;;5052816;28;20204;-86
2021/05/20 01:23:14;;;;;;;1.33;1.23;;;11.40;75.20;;;;;;5052153;28;20188;-86
2021/05/20 01:25:45;;;;;;;1.50;1.40;;;11.30;77.20;;;;;;5052131;28;20204;-85
2021/05/20 01:28:13;;;;;;;2.47;1.25;;;11.00;77.80;;;;;;5052342;28;20614;-85
2021/05/20 01:30:43;;;;;;;1.40;1.30;;;10.90;77.70;;;;;;5051522;28;20200;-85
2021/05/20 01:33:11;;;;;;;5.80;1.50;;;11.00;78.80;;;;;;5053419;28;20715;-85
2021/05/20 01:35:39;;;;;;;1.30;1.20;;;11.00;78.80;;;;;;5055191;28;20279;-86
2021/05/20 01:38:41;;;;;;;1.30;1.20;;;11.20;78.00;;;;;;5052540;28;20616;-86
2021/05/20 01:41:11;;;;;;;1.67;1.38;;;11.20;77.00;;;;;;5052063;28;20622;-86
2021/05/20 01:43:39;;;;;;;1.30;1.20;;;11.10;76.30;;;;;;5052152;28;20197;-86
2021/05/20 01:46:11;;;;;;;1.17;1.07;;;10.90;76.80;;;;;;5051249;28;21036;-86
2021/05/20 01:48:44;;;;;;;1.80;1.35;;;10.90;77.90;;;;;;5052163;28;20641;-85
2021/05/20 01:51:13;;;;;;;2.08;1.10;;;10.70;77.20;;;;;;5038205;28;20283;-85
2021/05/20 01:53:43;;;;;;;1.80;1.70;;;10.60;78.60;;;;;;5052268;28;20274;-85
2021/05/20 01:56:11;;;;;;;1.05;1.00;;;10.70;79.00;;;;;;5051427;28;20732;-86
2021/05/20 01:58:39;;;;;;;2.90;1.40;;;10.50;78.80;;;;;;5044984;28;20196;-86
2021/05/20 02:01:07;;;;;;;1.60;1.35;;;10.50;80.20;;;;;;5041455;28;20224;-86
2021/05/20 02:03:36;;;;;;;0.93;0.90;;;10.20;80.30;;;;;;5050130;28;20843;-85
2021/05/20 02:06:07;;;;;;;1.20;1.10;;;10.30;81.10;;;;;;5051005;28;20200;-86
2021/05/20 02:08:36;;;;;;;1.65;1.50;;;10.10;79.90;;;;;;5050882;28;20302;-85
2021/05/20 02:11:06;;;;;;;2.67;1.27;;;10.20;80.70;;;;;;5051015;28;20200;-85
2021/05/20 02:13:37;;;;;;;1.20;1.10;;;10.20;81.00;;;;;;5051420;28;20204;-85
2021/05/20 02:16:06;;;;;;;3.40;1.23;;;10.10;80.80;;;;;;5051105;28;20539;-85
2021/05/20 02:18:34;;;;;;;1.33;1.23;;;10.20;81.70;;;;;;5050602;28;20222;-85
2021/05/20 02:21:08;;;;;;;1.48;1.38;;;10.30;81.10;;;;;;5051248;28;20199;-86
2021/05/20 02:23:40;;;;;;;1.45;1.30;;;10.20;79.80;;;;;;5051265;28;20277;-87
2021/05/20 02:26:08;;;;;;;1.10;1.00;;;10.20;80.60;;;;;;5050730;28;20568;-87
2021/05/20 02:28:35;;;;;;;1.33;1.23;;;10.20;80.60;;;;;;5050097;28;20334;-86
2021/05/20 02:31:01;;;;;;;1.40;1.30;;;10.10;81.10;;;;;;5050722;28;20224;-87
2021/05/20 02:33:28;;;;;;;1.35;1.15;;;10.00;81.20;;;;;;5051165;28;20196;-87
2021/05/20 02:35:54;;;;;;;1.65;1.55;;;9.90;83.10;;;;;;5050394;28;20196;-87
2021/05/20 02:38:21;;;;;;;1.10;1.00;;;10.00;81.80;;;;;;5050709;28;20203;-87
2021/05/20 02:40:47;;;;;;;1.40;1.30;;;10.00;82.00;;;;;;5050086;28;20560;-86
2021/05/20 02:43:14;;;;;;;6.38;1.70;;;9.80;83.20;;;;;;5050341;28;20195;-86
2021/05/20 02:45:41;;;;;;;1.30;1.20;;;9.70;84.50;;;;;;5050591;28;20220;-87
2021/05/20 02:48:08;;;;;;;1.00;1.00;;;9.80;84.80;;;;;;5051070;28;20199;-87
2021/05/20 02:50:35;;;;;;;2.63;1.10;;;9.90;85.50;;;;;;5049502;28;20200;-86
2021/05/20 02:53:01;;;;;;;2.85;1.38;;;9.90;84.50;;;;;;5050628;28;20196;-86
2021/05/20 02:55:28;;;;;;;1.90;1.25;;;9.90;84.10;;;;;;5050515;28;20572;-87
2021/05/20 02:57:56;;;;;;;1.35;1.17;;;9.80;84.70;;;;;;5050731;28;20200;-87
2021/05/20 03:00:27;;;;;;;0.98;0.98;;;10.00;83.90;;;;;;5048403;28;20236;-87
2021/05/20 03:02:54;;;;;;;1.20;1.10;;;9.90;84.00;;;;;;5054157;28;20287;-86
2021/05/20 03:05:20;;;;;;;1.15;1.13;;;10.00;83.30;;;;;;5051366;28;20222;-86
2021/05/20 03:07:47;;;;;;;1.23;1.13;;;10.00;83.20;;;;;;5050444;28;20297;-86
2021/05/20 03:10:14;;;;;;;1.58;1.30;;;10.00;83.40;;;;;;5049752;28;20208;-86
2021/05/20 03:12:41;;;;;;;1.55;1.45;;;9.90;84.90;;;;;;5043443;28;20727;-86
2021/05/20 03:15:09;;;;;;;2.80;1.40;;;9.90;85.10;;;;;;5049350;28;20608;-86
2021/05/20 03:17:36;;;;;;;1.35;1.25;;;9.80;85.00;;;;;;5049949;28;20199;-86
2021/05/20 03:20:05;;;;;;;1.42;1.33;;;9.50;84.10;;;;;;5049547;28;20728;-86
2021/05/20 03:22:32;;;;;;;1.00;0.90;;;9.50;85.70;;;;;;5049772;28;20203;-86
2021/05/20 03:24:58;;;;;;;1.20;1.20;;;9.60;86.70;;;;;;5049832;28;20219;-86
2021/05/20 03:27:25;;;;;;;1.42;1.33;;;9.80;86.90;;;;;;5050654;28;20227;-87
2021/05/20 03:29:51;;;;;;;1.23;1.17;;;9.80;87.90;;;;;;5049600;28;20258;-87
2021/05/20 03:32:17;;;;;;;1.63;1.52;;;9.60;87.80;;;;;;5049802;28;20203;-87
2021/05/20 03:34:45;;;;;;;1.98;1.45;;;9.60;90.10;;;;;;5050232;28;20200;-87
2021/05/20 03:37:11;;;;;;;2.20;1.33;;;9.50;91.20;;;;;;5049651;28;20211;-86
2021/05/20 03:39:38;;;;;;;1.95;1.83;;;9.40;92.00;;;;;;5049606;28;20196;-86
2021/05/20 03:42:05;;;;;;;1.25;1.15;;;9.10;93.20;;;;;;5049841;28;20266;-86
2021/05/20 03:44:31;;;;;;;1.50;1.40;;;9.00;95.10;;;;;;5049751;28;20223;-86
2021/05/20 03:46:58;;;;;;;1.50;1.40;;;9.00;96.30;;;;;;5049617;28;20219;-85
2021/05/20 03:49:25;;;;;;;2.63;1.90;;;9.00;96.70;;;;;;5049121;28;20200;-85
2021/05/20 03:51:52;;;;;;;1.83;1.67;;;8.90;97.20;;;;;;5050141;28;20208;-86
2021/05/20 03:54:19;;;;;;;1.25;1.15;;;9.10;98.30;;;;;;5049867;28;20220;-85
2021/05/20 03:56:46;;;;;;;1.40;1.30;;;9.20;98.40;;;;;;5049812;28;20568;-85
2021/05/20 03:59:12;;;;;;;1.60;1.50;;;9.30;98.50;;;;;;5048299;28;20211;-85
2021/05/20 04:01:40;;;;;;;1.40;1.30;;;9.20;97.80;;;;;;5049304;28;20701;-85
2021/05/20 04:04:07;;;;;;;1.50;1.40;;;9.20;98.00;;;;;;5049994;28;20228;-85
2021/05/20 04:06:33;;;;;;;1.63;1.33;;;9.30;98.10;;;;;;5049326;28;20204;-86
2021/05/20 04:09:00;;;;;;;1.40;1.30;;;9.30;97.70;;;;;;5049148;28;20200;-85
2021/05/20 04:11:28;;;;;;;1.70;1.58;;;9.40;98.30;;;;;;5049425;28;20192;-86
2021/05/20 04:13:55;;;;;;;1.27;1.17;;;9.60;98.40;;;;;;5049271;28;20200;-85
2021/05/20 04:16:25;;;;;;;1.50;1.40;;;9.60;98.60;;;;;;5049348;28;20192;-85
2021/05/20 04:18:51;;;;;;;1.23;1.13;;;9.80;98.10;;;;;;5049378;28;20196;-85
2021/05/20 04:21:18;;;;;;;1.42;1.33;;;9.60;97.00;;;;;;5042491;28;20399;-86
2021/05/20 04:23:46;;;;;;;1.60;1.50;;;9.60;97.30;;;;;;5049381;28;20212;-86
2021/05/20 04:26:18;;;;;;;1.27;1.27;;;9.70;97.40;;;;;;5049780;28;20196;-86
2021/05/20 04:28:44;;;;;;;1.50;1.40;;;9.60;97.00;;;;;;5052553;28;20199;-86
2021/05/20 04:31:12;;;;;;;0.98;0.85;;;9.70;96.90;;;;;;5054373;28;20200;-86
2021/05/20 04:33:39;;;;;;;1.50;1.40;;;9.70;96.80;;;;;;5056967;28;20219;-86
2021/05/20 04:36:06;;;;;;;1.60;1.50;;;9.70;97.10;;;;;;5052786;28;20291;-86
2021/05/20 04:38:32;;;;;;;1.90;1.35;;;9.80;97.00;;;;;;5053088;28;20200;-86
2021/05/20 04:40:59;;;;;;;1.40;1.30;;;9.90;97.30;;;;;;5053017;28;20208;-86
2021/05/20 04:43:26;;;;;;;1.38;1.27;;;9.80;96.80;;;;;;5053148;28;20276;-86
2021/05/20 04:45:53;;;;;;;1.40;1.30;;;9.90;97.10;;;;;;5053107;28;20195;-86
2021/05/20 04:48:19;;;;;;;1.25;1.15;;;10.00;96.70;;;;;;5052807;28;20196;-86
2021/05/20 04:50:45;;;;;;;4.20;1.50;;;10.00;96.90;;;;;;5052656;28;20196;-86
2021/05/20 04:53:12;;;;;;;1.58;1.48;;;10.00;96.60;;;;;;5052809;28;20559;-86
2021/05/20 04:55:38;;;;;;;1.52;1.42;;;10.10;96.90;;;;;;5052893;28;20200;-86
2021/05/20 04:58:05;;;;;;;3.40;1.50;;;10.10;96.30;;;;;;5052738;28;20249;-86
2021/05/20 05:00:35;;;;;;;1.20;1.10;;;10.20;96.20;;;;;;5052187;28;20200;-86
2021/05/20 05:03:01;;;;;;;1.55;1.40;;;10.30;96.20;;;;;;5052858;28;20192;-87
2021/05/20 05:05:31;;;;;;;1.25;1.13;;;10.40;96.40;;;;;;5052964;28;20222;-87
2021/05/20 05:08:00;;;;;;;1.52;1.42;;;10.40;96.20;;;;;;5053186;28;20746;-87
2021/05/20 05:10:27;;;;;;;1.98;1.70;;;10.30;95.40;;;;;;5052539;28;20681;-87
2021/05/20 05:12:53;;;;;;;1.75;1.63;;;10.40;95.30;;;;;;5052434;28;20204;-88
2021/05/20 05:15:21;;;;;;;1.95;1.77;;;10.20;95.00;;;;;;5052377;28;20196;-87
2021/05/20 05:17:49;;;;;;;1.50;1.30;;;10.40;96.10;;;;;;5052227;28;20200;-87
2021/05/20 05:20:15;;;;;;;1.35;1.25;;;10.50;95.80;;;;;;5052028;28;20257;-87
2021/05/20 05:22:41;;;;;;;1.10;1.10;;;10.60;95.60;;;;;;5053393;28;20196;-88
2021/05/20 05:25:09;;;;;;;1.20;1.20;;;10.20;94.80;;;;;;5052181;28;20258;-87
2021/05/20 05:27:35;;;;;;;1.33;1.23;;;10.20;95.10;;;;;;5052482;28;20223;-87
2021/05/20 05:30:02;;;;;;;1.23;1.20;;;9.90;95.90;;;;;;5052091;28;20207;-88
2021/05/20 05:32:29;;;;;;;1.20;1.13;;;9.90;96.50;;;;;;5049350;28;20234;-87
2021/05/20 05:34:56;;;;;;;1.48;1.38;;;9.80;96.00;;;;;;5051790;28;20196;-86
2021/05/20 05:37:23;;;;;;;1.13;1.02;;;9.90;96.70;;;;;;5051000;28;20204;-88
2021/05/20 05:39:49;;;;;;;2.72;2.05;;;10.00;96.00;;;;;;5051038;28;20198;-87
2021/05/20 05:42:16;;;;;;;1.98;1.60;;;10.10;95.80;;;;;;5044515;28;20246;-87
2021/05/20 05:44:43;;;;;;;2.47;1.75;;;10.50;96.30;;;;;;5052132;28;20638;-87
2021/05/20 05:47:09;;;;;;;1.65;1.15;;;10.70;95.50;;;;;;5051801;28;20207;-86
2021/05/20 05:49:40;;;;;;;2.00;1.55;;;10.90;95.40;;;;;;5052201;28;20192;-87
2021/05/20 05:52:09;;;;;;;2.88;1.80;;;10.90;94.20;;;;;;5049656;28;20191;-87
2021/05/20 05:54:36;;;;;;;2.23;1.37;;;10.80;94.40;;;;;;5052099;28;20219;-86
2021/05/20 05:57:03;;;;;;;1.20;1.10;;;11.00;94.50;;;;;;5052537;28;20664;-86
2021/05/20 05:59:29;;;;;;;1.60;1.23;;;11.10;94.80;;;;;;5052530;28;20615;-86
2021/05/20 06:01:58;;;;;;;1.30;1.20;;;11.10;94.10;;;;;;5053936;28;20618;-86
2021/05/20 06:04:25;;;;;;;1.50;1.40;;;11.20;93.90;;;;;;5054299;28;20677;-87
2021/05/20 06:06:51;;;;;;;3.83;1.20;;;11.30;93.30;;;;;;5053108;28;20634;-86
2021/05/20 06:09:19;;;;;;;2.37;1.73;;;11.40;93.30;;;;;;5052369;28;20589;-86
2021/05/20 06:11:45;;;;;;;4.03;1.30;;;11.70;93.60;;;;;;5049299;28;20626;-86
2021/05/20 06:14:12;;;;;;;1.40;1.30;;;11.60;92.40;;;;;;5052002;28;20610;-88
2021/05/20 06:16:41;;;;;;;1.47;1.37;;;11.70;92.30;;;;;;5051893;28;21099;-86
2021/05/20 06:19:08;;;;;;;1.57;1.47;;;11.40;91.80;;;;;;5051570;28;20745;-86
2021/05/20 06:21:35;;;;;;;1.50;1.40;;;11.50;92.60;;;;;;5051755;28;20613;-86
2021/05/20 06:24:02;;;;;;;1.70;1.30;;;11.70;92.40;;;;;;5051349;28;20638;-86
2021/05/20 06:26:30;;;;;;;3.37;1.40;;;11.40;91.70;;;;;;5050972;28;20645;-86
2021/05/20 06:28:56;;;;;;;2.33;2.13;;;11.70;92.70;;;;;;5051292;28;20628;-86
2021/05/20 06:31:23;;;;;;;1.53;1.43;;;11.70;92.20;;;;;;5050428;28;21226;-85
2021/05/20 06:33:50;;;;;;;2.17;1.63;;;11.90;92.30;;;;;;5051296;28;20683;-86
2021/05/20 06:36:17;;;;;;;1.90;1.30;;;11.70;91.40;;;;;;5051167;28;20946;-85
2021/05/20 06:38:43;;;;;;;2.23;2.03;;;11.80;91.60;;;;;;5050918;28;20606;-85
2021/05/20 06:41:10;;;;;;;1.80;1.53;;;11.80;91.50;;;;;;5050935;28;20602;-86
2021/05/20 06:43:38;;;;;;;2.37;1.70;;;12.00;91.60;;;;;;5050410;28;20979;-85
2021/05/20 06:46:04;;;;;;;2.20;1.40;;;11.90;90.80;;;;;;5050329;28;20622;-85
2021/05/20 06:48:31;;;;;;;1.50;1.40;;;11.90;90.90;;;;;;5050945;28;20733;-85
2021/05/20 06:50:58;;;;;;;1.50;1.40;;;12.20;91.40;;;;;;5050782;28;20622;-86
2021/05/20 06:53:25;;;;;;;1.37;1.27;;;12.20;89.90;;;;;;5051369;28;21107;-86
2021/05/20 06:55:56;;;;;;;1.87;1.77;;;12.20;90.20;;;;;;5044825;28;20997;-85
2021/05/20 07:01:08;;;;;;;2.00;1.90;;;12.20;90.10;;;;;;5049795;28;20638;-85
2021/05/20 07:03:34;;;;;;;1.50;1.40;;;12.20;90.60;;;;;;5047988;28;20751;-86
2021/05/20 07:06:01;;;;;;;2.10;1.80;;;11.90;90.30;;;;;;5049515;28;20627;-86
2021/05/20 07:08:28;;;;;;;1.70;1.60;;;12.10;90.70;;;;;;5050615;28;20672;-86
2021/05/20 07:10:55;;;;;;;7.33;1.50;;;11.80;90.60;;;;;;5050116;28;20622;-86
2021/05/20 07:13:23;;;;;;;1.87;1.67;;;12.00;90.50;;;;;;5050116;28;20618;-86
2021/05/20 07:15:50;;;;;;;2.30;2.10;;;12.00;89.20;;;;;;5050366;28;20618;-85
2021/05/20 07:18:18;;;;;;;2.57;2.20;;;12.30;90.10;;;;;;5051008;28;20633;-86
2021/05/20 07:20:45;;;;;;;2.10;1.90;;;12.60;90.20;;;;;;5049942;28;20625;-86
2021/05/20 07:23:12;;;;;;;1.40;1.30;;;12.90;88.00;;;;;;5050707;28;20618;-86
2021/05/20 07:25:39;;;;;;;2.10;1.87;;;13.20;86.90;;;;;;5049428;28;21121;-86
2021/05/20 07:28:06;;;;;;;1.70;1.40;;;13.10;85.10;;;;;;5051293;28;20671;-87
2021/05/20 07:30:33;;;;;;;1.67;1.57;;;13.50;85.50;;;;;;5051094;28;20630;-86
2021/05/20 07:33:00;;;;;;;1.93;1.83;;;13.40;83.60;;;;;;5051797;28;20713;-85
2021/05/20 07:35:27;;;;;;;1.93;1.60;;;13.10;83.00;;;;;;5060073;28;20630;-86
2021/05/20 07:37:54;;;;;;;1.27;1.27;;;13.10;84.30;;;;;;5051804;28;21183;-87
2021/05/20 07:40:21;;;;;;;1.40;1.30;;;13.00;82.80;;;;;;5050483;28;20614;-86
2021/05/20 07:42:48;;;;;;;1.87;1.77;;;12.70;84.20;;;;;;5050528;28;20703;-86
2021/05/20 07:45:16;;;;;;;1.70;1.60;;;13.00;84.70;;;;;;5050007;28;20695;-85
2021/05/20 07:47:46;;;;;;;1.90;1.70;;;12.90;82.70;;;;;;5050865;28;21199;-86
2021/05/20 07:50:15;;;;;;;1.50;1.40;;;13.10;83.70;;;;;;5049970;28;21178;-86
2021/05/20 07:52:43;;;;;;;1.70;1.60;;;13.20;83.50;;;;;;5050443;28;20618;-86
2021/05/20 07:55:11;;;;;;;3.43;1.50;;;13.60;82.40;;;;;;5050270;28;21151;-86
2021/05/20 07:57:37;;;;;;;1.60;1.50;;;13.50;81.60;;;;;;5050762;28;21061;-86
2021/05/20 08:00:06;;;;;;;2.27;1.70;;;13.80;80.70;;;;;;5049993;28;20610;-87
2021/05/20 08:02:39;;;;;;;1.40;1.27;;;13.60;78.70;;;;;;5054368;28;20709;-87
2021/05/20 08:05:09;;;;;;;1.33;1.33;;;14.00;80.20;;;;;;5055099;28;20642;-86
2021/05/20 08:07:38;;;;;;;1.10;0.93;;;14.20;77.90;;;;;;5055022;28;20674;-86
2021/05/20 08:10:24;;;;;;;2.70;1.27;;;14.20;77.70;;;;;;5055986;28;20651;-86
2021/05/20 08:12:51;;;;;;;0.93;0.90;;;14.20;76.90;;;;;;5055704;28;20619;-86
2021/05/20 08:15:17;;;;;;;1.40;1.30;;;13.90;75.80;;;;;;5051171;28;20653;-86
2021/05/20 08:17:44;;;;;;;1.00;1.00;;;14.10;77.50;;;;;;5055621;28;20607;-85
2021/05/20 08:20:12;;;;;;;1.50;1.40;;;14.20;74.60;;;;;;5055814;28;20629;-86
2021/05/20 08:22:38;;;;;;;2.37;1.37;;;14.00;74.70;;;;;;5055746;28;20611;-86
2021/05/20 08:25:08;;;;;;;1.83;1.60;;;13.60;74.70;;;;;;5052785;28;20647;-85
2021/05/20 08:27:34;;;;;;;1.20;1.20;;;13.80;76.20;;;;;;5049108;28;20620;-86
2021/05/20 08:30:01;;;;;;;2.60;2.40;;;14.00;75.80;;;;;;5054015;28;20604;-85
2021/05/20 08:32:27;;;;;;;1.67;1.57;;;14.00;75.00;;;;;;5052573;28;20630;-87
2021/05/20 08:34:54;;;;;;;1.53;1.43;;;13.90;74.20;;;;;;5053212;28;20610;-86
2021/05/20 08:37:20;;;;;;;1.67;1.57;;;14.00;74.90;;;;;;5054269;28;20647;-87
2021/05/20 08:39:47;;;;;;;1.70;1.50;;;14.20;74.70;;;;;;5053643;28;21188;-87
2021/05/20 08:42:14;;;;;;;1.10;1.00;;;14.60;74.90;;;;;;5054387;28;20607;-87
2021/05/20 08:44:40;;;;;;;1.47;1.30;;;14.80;74.90;;;;;;5054734;28;20639;-87
2021/05/20 08:47:07;;;;;;;1.27;1.17;;;14.80;74.30;;;;;;5054468;28;21302;-87
2021/05/20 08:49:34;;;;;;;1.03;1.00;;;14.40;71.90;;;;;;5053741;28;20685;-87
2021/05/20 08:52:00;;;;;;;1.10;1.00;;;14.10;71.20;;;;;;5052081;28;20623;-86
2021/05/20 08:54:27;;;;;;;0.80;0.80;;;14.20;72.90;;;;;;5053135;28;21497;-87
2021/05/20 08:56:55;;;;;;;2.00;1.20;;;14.40;71.20;;;;;;5053510;28;20624;-87
2021/05/20 08:59:23;;;;;;;1.10;1.00;;;14.20;71.90;;;;;;5052529;28;20638;-86
2021/05/20 09:01:51;;;;;;;1.13;1.03;;;14.00;72.80;;;;;;5054898;28;20960;-87
2021/05/20 09:04:22;;;;;;;1.00;1.00;;;14.00;74.90;;;;;;5064655;28;20712;-87
2021/05/20 09:06:51;;;;;;;1.20;1.10;;;14.00;76.50;;;;;;5054889;28;21004;-88
2021/05/20 09:09:21;;;;;;;1.20;1.10;;;14.10;76.40;;;;;;5053936;28;20717;-87
2021/05/20 09:11:48;;;;;;;1.83;1.20;;;13.90;76.20;;;;;;5034649;28;20608;-87
2021/05/20 09:14:30;;;;;;;1.50;1.30;;;14.00;76.20;;;;;;5051167;28;20768;-87
2021/05/20 09:17:13;;;;;;;1.33;1.23;;;14.10;75.50;;;;;;5055024;28;20622;-86
2021/05/20 09:19:42;;;;;;;1.13;0.97;;;14.10;74.30;;;;;;5054297;28;20700;-86
2021/05/20 09:22:10;;;;;;;1.00;1.00;;;14.10;75.10;;;;;;5054093;28;20606;-87
2021/05/20 09:24:47;;;;;;;0.80;0.80;;;14.10;74.20;;;;;;5054942;28;20638;-86
2021/05/20 09:27:28;;;;;;;0.93;0.93;;;14.20;74.40;;;;;;5034767;28;20616;-87
2021/05/20 09:30:18;;;;;;;1.57;1.33;;;13.90;70.30;;;;;;5035901;28;20612;-87
2021/05/20 09:32:48;;;;;;;1.43;1.33;;;13.90;73.30;;;;;;5053919;28;20626;-85
2021/05/20 09:35:15;;;;;;;1.60;0.97;;;14.10;72.10;;;;;;5052877;28;20660;-86
2021/05/20 09:37:48;;;;;;;1.23;1.10;;;14.50;72.00;;;;;;5052626;28;20616;-87
2021/05/20 09:40:16;;;;;;;1.30;1.20;;;14.60;66.70;;;;;;5052963;28;20669;-86
2021/05/20 09:42:45;;;;;;;1.63;0.80;;;14.90;66.80;;;;;;5052921;28;20625;-85
2021/05/20 09:45:14;;;;;;;1.00;0.90;;;15.00;69.80;;;;;;5051097;28;20763;-87
2021/05/20 09:47:42;;;;;;;1.37;1.27;;;14.70;68.40;;;;;;5052735;28;20623;-86
2021/05/20 09:50:11;;;;;;;0.70;0.70;;;14.60;68.50;;;;;;5052515;28;20622;-87
2021/05/20 09:52:37;;;;;;;0.80;0.80;;;14.40;67.90;;;;;;5051063;28;20607;-86
2021/05/20 09:55:17;;;;;;;0.80;0.80;;;14.40;69.70;;;;;;5048728;28;20619;-86
2021/05/20 09:57:44;;;;;;;0.77;0.77;;;14.70;69.10;;;;;;5049088;28;21149;-87
2021/05/20 10:00:12;;;;;;;1.10;0.90;;;15.00;68.80;;;;;;5048681;28;21043;-86
2021/05/20 10:02:41;;;;;;;3.30;0.90;;;15.00;68.20;;;;;;5052185;28;20772;-88
2021/05/20 10:05:26;;;;;;;0.80;0.80;;;15.10;67.40;;;;;;5052266;28;21098;-86
2021/05/20 10:07:53;;;;;;;0.70;0.70;;;15.20;66.30;;;;;;5053756;28;21126;-87
2021/05/20 10:10:20;;;;;;;0.70;0.70;;;14.90;64.60;;;;;;5053705;28;20623;-87
2021/05/20 10:12:47;;;;;;;1.40;1.23;;;15.20;66.50;;;;;;5054261;28;21086;-87
2021/05/20 10:15:15;;;;;;;2.30;0.83;;;15.70;66.90;;;;;;5053520;28;20658;-87
2021/05/20 10:17:44;;;;;;;1.13;0.97;;;15.80;64.60;;;;;;5053273;28;20602;-86
2021/05/20 10:20:13;;;;;;;1.00;0.90;;;15.70;62.00;;;;;;5052873;28;20651;-87
2021/05/20 10:22:39;;;;;;;1.33;0.90;;;15.80;61.30;;;;;;5053246;28;20680;-86
2021/05/20 10:25:08;;;;;;;2.20;0.80;;;16.20;62.40;;;;;;5053162;28;20649;-87
2021/05/20 10:27:36;;;;;;;0.67;0.67;;;15.90;58.50;;;;;;5054277;28;20611;-85
2021/05/20 10:30:05;;;;;;;0.67;0.67;;;15.70;59.80;;;;;;5053007;28;20726;-87
2021/05/20 10:32:32;;;;;;;0.67;0.67;;;16.00;59.60;;;;;;5060439;28;20686;-87
2021/05/20 10:35:08;;;;;;;0.73;0.73;;;16.40;60.70;;;;;;5054850;28;20622;-87
2021/05/20 10:37:39;;;;;;;0.73;0.73;;;16.40;59.50;;;;;;5054961;28;20612;-87
2021/05/20 10:40:13;;;;;;;0.87;0.87;;;16.80;59.30;;;;;;5053381;28;20633;-87
2021/05/20 10:42:42;;;;;;;1.03;1.03;;;16.90;59.10;;;;;;5053542;28;20606;-87
2021/05/20 10:45:29;;;;;;;0.60;0.60;;;16.70;58.30;;;;;;5051109;28;20646;-88
2021/05/20 10:48:21;;;;;;;0.57;0.57;;;16.70;58.30;;;;;;5049955;28;21017;-88
2021/05/20 10:51:16;;;;;;;0.70;0.60;;;16.60;57.20;;;;;;5052308;28;20664;-86
2021/05/20 10:53:57;;;;;;;0.90;0.90;;;16.10;55.90;;;;;;5053330;28;20708;-87
2021/05/20 10:56:56;;;;;;;2.00;1.80;;;16.10;57.70;;;;;;5053116;28;20638;-87
2021/05/20 10:59:50;;;;;;;1.23;1.00;;;16.50;57.00;;;;;;5051961;28;20626;-86
2021/05/20 11:02:46;;;;;;;0.60;0.60;;;16.80;57.20;;;;;;5052185;28;20676;-87
2021/05/20 11:05:53;;;;;;;0.97;0.67;;;17.70;57.90;;;;;;5049361;28;20688;-87
2021/05/20 11:09:02;;;;;;;0.63;0.60;;;18.80;56.40;;;;;;5053614;28;20617;-87
2021/05/20 11:11:51;;;;;;;0.70;0.70;;;19.90;54.70;;;;;;5051656;28;21023;-87
2021/05/20 11:14:43;;;;;;;0.60;0.60;;;19.70;50.50;;;;;;5053888;28;20624;-88
2021/05/20 11:17:43;;;;;;;2.63;0.63;;;19.40;51.90;;;;;;5053682;28;20610;-87
2021/05/20 11:21:01;;;;;;;0.60;0.60;;;19.10;48.90;;;;;;5032346;28;20678;-88
2021/05/20 11:23:32;;;;;;;1.07;0.50;;;19.50;50.80;;;;;;5028418;28;20638;-87
2021/05/20 11:26:27;;;;;;;1.30;0.60;;;20.10;48.20;;;;;;5048445;28;20654;-88
2021/05/20 11:29:01;;;;;;;0.97;0.60;;;19.60;47.40;;;;;;5053788;28;20669;-89
2021/05/20 11:31:30;;;;;;;1.53;0.70;;;18.60;48.30;;;;;;5053364;28;20628;-89
2021/05/20 11:34:22;;;;;;;0.80;0.80;;;18.20;51.50;;;;;;5053338;28;20625;-87
2021/05/20 11:36:50;;;;;;;0.80;0.80;;;17.80;51.30;;;;;;5052736;28;20622;-88
2021/05/20 11:39:18;;;;;;;1.23;1.10;;;17.00;51.70;;;;;;5049323;28;20679;-88
2021/05/20 11:41:47;;;;;;;3.00;0.90;;;17.00;52.90;;;;;;5050639;28;21241;-87
2021/05/20 11:44:19;;;;;;;0.50;0.50;;;17.30;53.00;;;;;;5051483;28;20658;-88
2021/05/20 11:46:48;;;;;;;1.03;0.70;;;17.20;51.50;;;;;;5052388;28;20618;-88
2021/05/20 11:49:19;;;;;;;0.40;0.40;;;17.50;51.80;;;;;;5051995;28;20630;-88
2021/05/20 11:51:53;;;;;;;0.53;0.53;;;17.90;51.00;;;;;;5053134;28;20974;-87
2021/05/20 11:54:22;;;;;;;0.70;0.70;;;18.80;51.20;;;;;;5052120;28;20617;-86
2021/05/20 11:56:51;;;;;;;0.50;0.50;;;20.20;48.50;;;;;;5052320;28;20614;-88
2021/05/20 11:59:43;;;;;;;0.60;0.50;;;22.40;47.80;;;;;;5056602;28;20634;-89
2021/05/20 12:02:12;;;;;;;1.17;0.57;;;25.70;44.10;;;;;;5058187;28;20602;-88
2021/05/20 12:04:39;;;;;;;0.60;0.60;;;30.40;36.70;;;;;;5052548;28;20658;-88
2021/05/20 12:07:07;;;;;;;0.57;0.40;;;33.50;31.80;;;;;;5052972;28;20636;-88
2021/05/20 12:09:34;;;;;;;1.30;0.60;;;36.00;29.20;;;;;;5052092;28;20634;-89
2021/05/20 12:12:11;;;;;;;0.90;0.70;;;37.80;27.30;;;;;;5053515;28;20961;-88
2021/05/20 12:14:40;;;;;;;0.60;0.50;;;35.00;26.40;;;;;;5050622;28;20654;-89
2021/05/20 12:17:13;;;;;;;1.63;0.50;;;32.50;28.70;;;;;;5053162;28;20619;-89
2021/05/20 12:19:43;;;;;;;0.60;0.50;;;30.00;30.70;;;;;;5052517;28;20622;-89
2021/05/20 12:22:18;;;;;;;1.43;0.70;;;27.80;32.70;;;;;;5053829;28;20672;-89
2021/05/20 12:24:48;;;;;;;0.60;0.60;;;25.70;34.90;;;;;;5052648;28;21202;-87
2021/05/20 12:27:20;;;;;;;0.93;0.67;;;24.60;36.30;;;;;;5052375;28;20622;-89
2021/05/20 12:29:50;;;;;;;0.50;0.50;;;23.90;36.90;;;;;;5047120;28;20713;-89
2021/05/20 12:32:29;;;;;;;1.60;1.03;;;22.10;38.10;;;;;;5046736;28;20641;-89
2021/05/20 12:35:17;;;;;;;0.70;0.70;;;21.60;40.10;;;;;;5052308;28;20676;-88
2021/05/20 12:37:46;;;;;;;0.70;0.70;;;21.20;40.50;;;;;;5062720;28;21177;-88
2021/05/20 12:40:15;;;;;;;0.70;0.70;;;20.80;41.50;;;;;;5052036;28;20622;-88
2021/05/20 12:42:41;;;;;;;0.80;0.80;;;19.70;43.70;;;;;;5051036;28;20630;-88
2021/05/20 12:45:10;;;;;;;0.80;0.77;;;19.20;43.80;;;;;;5052589;28;20658;-89
2021/05/20 12:47:49;;;;;;;0.80;0.80;;;18.70;44.10;;;;;;5052986;28;20622;-88
2021/05/20 12:50:29;;;;;;;0.83;0.60;;;18.30;46.20;;;;;;5055568;28;20730;-88
2021/05/20 12:52:57;;;;;;;0.67;0.67;;;18.30;47.60;;;;;;5055942;28;20707;-88
2021/05/20 12:55:31;;;;;;;1.33;1.10;;;18.40;47.00;;;;;;5054765;28;21090;-87
2021/05/20 12:58:00;;;;;;;1.57;0.83;;;18.60;47.30;;;;;;5054973;28;21061;-88
2021/05/20 13:00:29;;;;;;;0.80;0.80;;;18.60;47.10;;;;;;5055130;28;20768;-88
2021/05/20 13:03:00;;;;;;;1.50;1.40;;;18.90;48.20;;;;;;5055752;28;20756;-88
2021/05/20 13:05:28;;;;;;;0.87;0.80;;;19.30;48.40;;;;;;5055328;28;20748;-88